Terminal Aerodrome Forecast
Issued by NWS Lake Charles, LA

Home | Current Version | Previous Version | Text Only | Print | Product List | Glossary On
Versions: 1 2 3 4 5 6 7 8 9 10 11 12 13 14 15 16 17 18
000
FTUS44 KLCH 032300
TAFAEX
TAF
KAEX 032337Z 0400/0424 19010KT P6SM SCT025 OVC060
     FM040300 16006KT 1/2SM FG OVC003
     FM041700 18010KT P6SM OVC007
     FM041900 18010G15KT P6SM OVC015=

USA.gov is the U.S. government's official web portal to all federal, state and local government web resources and services.